Terminal Aerodrome Forecast
Issued by NWS

Current Version | Previous Version | Graphics & Text | Print | Product List | Glossary On
Versions: 1 2 3 4 5 6 7 8 9 10 11 12 13 14 15 16
000
FTUS41 KPBZ 201308 AAA
TAFMGW
TAF AMD
KMGW 201308Z 2013/2112 VRB03KT P6SM BKN015
     FM201400 07005KT P6SM BKN025
     FM202200 12006KT P6SM VCTS BKN050CB=

USA.gov is the U.S. government's official web portal to all federal, state and local government web resources and services.